Time;durP1;ratioP1;P1;durP2;ratioP2;P2;SDS_P1;SDS_P2;PMS_P1;PMS_P2;Temp;Humidity;BMP_temperature;BMP_pressure;BME280_temperature;BME280_humidity;BME280_pressure;Samples;Min_cycle;Max_cycle;Signal;HPM_P1;HPM_P2
2023/10/09 00:01:03;;;;;;;7.00;1.70;;;;;;;4.72;61.91;98745.68;78211;1301;3049371;-66
2023/10/09 00:03:30;;;;;;;3.40;1.70;;;;;;;4.71;61.85;98746.79;79505;1301;3011787;-69
2023/10/09 00:05:58;;;;;;;5.90;1.40;;;;;;;4.68;62.06;98750.90;78402;1301;3028478;-68
2023/10/09 00:08:30;;;;;;;4.90;1.50;;;;;;;4.70;62.02;98747.13;79483;1299;3013436;-73
2023/10/09 00:11:13;;;;;;;3.50;1.50;;;;;;;4.71;62.18;98747.65;78303;1295;3055691;-69
2023/10/09 00:13:57;;;;;;;4.30;1.70;;;;;;;4.68;62.53;98755.27;78199;1301;3049992;-69
2023/10/09 00:16:34;;;;;;;9.50;1.70;;;;;;;4.77;62.48;98748.89;78292;1298;3053169;-71
2023/10/09 00:21:47;;;;;;;6.00;2.60;;;;;;;4.74;63.17;98754.27;78269;1299;3052380;-71
2023/10/09 00:24:23;;;;;;;9.70;3.10;;;;;;;4.81;63.06;98754.64;79693;1301;3013350;-69
2023/10/09 00:26:52;;;;;;;4.40;2.10;;;;;;;4.81;63.38;98760.49;78383;1300;3051033;-65
2023/10/09 00:29:21;;;;;;;9.80;3.20;;;;;;;4.77;63.71;98771.82;79266;1296;3013441;-71
2023/10/09 00:31:54;;;;;;;11.20;3.40;;;;;;;4.75;63.98;98767.42;78990;1295;3011951;-69
2023/10/09 00:34:22;;;;;;;10.40;2.80;;;;;;;4.72;64.39;98777.44;79483;1295;3011254;-73
2023/10/09 00:36:50;;;;;;;12.40;3.00;;;;;;;4.75;64.30;98778.67;78356;1301;3048723;-70
2023/10/09 00:42:06;;;;;;;3.80;2.30;;;;;;;4.82;64.17;98786.67;78199;1295;3069328;-72
2023/10/09 00:44:39;;;;;;;6.20;2.60;;;;;;;4.80;64.34;98795.98;79455;1296;3014934;-71
2023/10/09 00:47:20;;;;;;;8.80;2.30;;;;;;;4.74;64.44;98804.41;78069;1301;3048714;-69
2023/10/09 00:49:58;;;;;;;8.50;2.10;;;;;;;4.88;64.36;98803.38;78210;1295;3053171;-72
2023/10/09 00:52:43;;;;;;;12.50;3.00;;;;;;;4.84;64.58;98820.55;78179;1295;3049147;-66
2023/10/09 00:55:17;;;;;;;3.50;1.60;;;;;;;4.97;64.38;98821.54;78282;1300;3052190;-66
2023/10/09 00:57:59;;;;;;;7.90;2.10;;;;;;;4.98;64.64;98820.64;78712;1296;3051475;-68
2023/10/09 01:00:45;;;;;;;9.10;2.00;;;;;;;4.93;65.09;98822.92;78684;1296;3069319;-72
2023/10/09 01:05:52;;;;;;;7.10;1.70;;;;;;;4.92;65.57;98837.92;79506;1295;3011440;-70
2023/10/09 01:08:43;;;;;;;3.60;1.50;;;;;;;4.97;65.83;98840.45;78295;1296;3049334;-72
2023/10/09 01:11:30;;;;;;;2.30;1.10;;;;;;;4.97;65.86;98848.45;78240;1300;3052935;-73
2023/10/09 01:16:34;;;;;;;1.90;0.80;;;;;;;5.00;65.47;98865.33;78457;1298;3052507;-66
2023/10/09 01:19:06;;;;;;;4.30;0.70;;;;;;;4.95;65.20;98859.98;79493;1296;3019040;-67
2023/10/09 01:21:34;;;;;;;8.20;1.90;;;;;;;4.94;65.23;98870.64;78242;1297;3052441;-72
2023/10/09 01:24:03;;;;;;;4.70;1.70;;;;;;;4.98;65.02;98860.02;79602;1295;3013084;-64
2023/10/09 01:26:39;;;;;;;6.00;1.20;;;;;;;4.95;65.12;98872.84;79145;1296;3011960;-65
2023/10/09 01:29:14;;;;;;;3.50;0.80;;;;;;;4.88;64.61;98876.30;79093;1298;3011538;-69
2023/10/09 01:31:51;;;;;;;6.60;1.30;;;;;;;4.84;64.26;98874.55;79624;1298;3012805;-69
2023/10/09 01:34:23;;;;;;;3.40;0.60;;;;;;;4.82;64.26;98879.86;78354;1297;3051451;-68
2023/10/09 01:36:55;;;;;;;1.30;0.50;;;;;;;4.71;63.98;98882.80;79480;1298;3011669;-71
2023/10/09 01:39:40;;;;;;;4.70;0.40;;;;;;;4.74;64.08;98871.05;78417;1298;3051907;-69
2023/10/09 01:42:09;;;;;;;0.70;0.40;;;;;;;4.72;63.72;98869.91;78399;1295;3068057;-71
2023/10/09 01:44:42;;;;;;;1.20;0.50;;;;;;;4.67;63.41;98868.77;79617;1295;3012844;-65
2023/10/09 01:47:18;;;;;;;13.00;1.10;;;;;;;4.62;63.14;98873.49;78247;1294;3048389;-75
2023/10/09 01:49:49;;;;;;;1.80;0.40;;;;;;;4.56;62.94;98872.17;78301;1298;3053025;-67
2023/10/09 01:52:16;;;;;;;1.00;0.40;;;;;;;4.56;63.04;98879.99;79822;1295;3013522;-72
2023/10/09 01:54:51;;;;;;;5.00;0.70;;;;;;;4.60;62.69;98874.95;79112;1297;3012184;-70
2023/10/09 01:57:30;;;;;;;1.60;0.30;;;;;;;4.52;62.48;98880.85;79558;1300;3012890;-69
2023/10/09 01:59:59;;;;;;;2.20;0.30;;;;;;;4.54;62.83;98869.65;78316;1301;3069589;-68
2023/10/09 02:02:35;;;;;;;4.50;0.60;;;;;;;4.56;62.69;98869.27;79742;1298;3013869;-65
2023/10/09 02:05:10;;;;;;;0.90;0.50;;;;;;;4.62;62.47;98877.30;78291;1297;3049920;-73
2023/10/09 02:08:13;;;;;;;2.00;0.50;;;;;;;4.63;62.34;98878.83;79114;1296;3011809;-71
2023/10/09 02:10:33;;;;;;;3.70;0.60;;;;;;;4.57;62.45;98878.20;78432;1308;3052967;-68
2023/10/09 02:13:09;;;;;;;1.00;0.60;;;;;;;4.60;62.43;98885.54;79459;1301;3013449;-71
2023/10/09 02:15:51;;;;;;;0.50;0.30;;;;;;;4.63;62.24;98883.87;78158;1301;3052230;-65
2023/10/09 02:23:50;;;;;;;0.70;0.50;;;;;;;4.70;62.10;98890.64;78277;1294;3055936;-68
2023/10/09 02:26:33;;;;;;;4.00;0.60;;;;;;;4.70;62.19;98897.07;79730;1294;3011741;-67
2023/10/09 02:29:09;;;;;;;0.80;0.70;;;;;;;4.71;61.66;98904.30;78482;1294;3053543;-72
2023/10/09 02:31:40;;;;;;;0.50;0.40;;;;;;;4.68;61.63;98900.98;79070;1296;3011489;-71
2023/10/09 02:34:10;;;;;;;0.70;0.60;;;;;;;4.73;61.65;98908.73;79569;1300;3011668;-72
2023/10/09 02:36:41;;;;;;;0.70;0.50;;;;;;;4.71;61.75;98905.52;78419;1298;3052468;-72
2023/10/09 02:39:22;;;;;;;0.90;0.60;;;;;;;4.78;61.50;98908.15;79716;1298;3011643;-75
2023/10/09 02:42:00;;;;;;;2.20;0.70;;;;;;;4.86;61.08;98914.73;78368;1295;3069181;-67
2023/10/09 02:44:34;;;;;;;1.40;0.50;;;;;;;4.87;60.86;98916.07;78553;1298;3051659;-69
2023/10/09 02:47:06;;;;;;;0.50;0.50;;;;;;;4.89;60.85;98916.69;79086;1298;3012849;-71
2023/10/09 02:49:34;;;;;;;0.80;0.60;;;;;;;4.91;60.91;98921.11;79486;1296;3013087;-68
2023/10/09 02:52:07;;;;;;;0.60;0.50;;;;;;;4.86;61.20;98917.85;79130;1301;3013083;-70
2023/10/09 02:54:41;;;;;;;2.30;0.70;;;;;;;4.83;61.39;98913.27;79745;1296;3011650;-69
2023/10/09 02:57:15;;;;;;;1.00;0.60;;;;;;;4.87;61.32;98918.13;78499;1298;3050895;-69
2023/10/09 02:59:44;;;;;;;3.30;1.10;;;;;;;4.92;61.39;98922.76;79734;1298;3013763;-68
2023/10/09 03:02:12;;;;;;;1.50;0.60;;;;;;;4.96;61.58;98934.06;78500;1298;3051095;-69
2023/10/09 03:04:41;;;;;;;2.70;1.30;;;;;;;4.99;61.60;98932.38;79645;1299;3012954;-65
2023/10/09 03:07:10;;;;;;;1.30;0.90;;;;;;;5.05;61.74;98942.17;79622;1295;3011649;-67
2023/10/09 03:09:38;;;;;;;3.10;1.40;;;;;;;5.08;62.22;98944.95;78529;1301;3049628;-67
2023/10/09 03:12:09;;;;;;;6.70;2.10;;;;;;;5.01;63.54;98947.52;79999;1295;3013049;-71
2023/10/09 03:14:38;;;;;;;4.40;2.40;;;;;;;5.10;63.69;98949.05;78546;1297;3051681;-70
2023/10/09 03:17:11;;;;;;;4.90;2.40;;;;;;;5.06;64.18;98948.86;79807;1295;3013019;-70
2023/10/09 03:19:38;;;;;;;5.50;3.00;;;;;;;5.03;64.75;98951.80;78299;1297;3050232;-68
2023/10/09 03:22:09;;;;;;;12.20;2.60;;;;;;;5.03;64.59;98946.59;79973;1294;3013603;-70
2023/10/09 03:24:41;;;;;;;8.60;2.50;;;;;;;4.98;64.98;98941.93;78453;1299;3053468;-70
2023/10/09 03:27:07;;;;;;;6.60;2.30;;;;;;;4.93;65.23;98946.19;79802;1294;3013634;-70
2023/10/09 03:29:37;;;;;;;6.50;1.90;;;;;;;4.76;66.21;98941.23;79374;1295;3011678;-69
2023/10/09 03:32:04;;;;;;;6.30;2.80;;;;;;;4.67;66.63;98947.15;79709;1296;3018689;-72
2023/10/09 03:34:30;;;;;;;7.10;2.10;;;;;;;4.68;66.75;98961.70;79472;1297;3013199;-67
2023/10/09 03:37:05;;;;;;;6.50;2.70;;;;;;;4.66;66.89;98977.05;78818;1298;3025795;-64
2023/10/09 03:39:41;;;;;;;5.00;2.00;;;;;;;4.70;66.97;98976.85;79646;1294;3011504;-69
2023/10/09 03:42:19;;;;;;;7.00;2.00;;;;;;;4.66;67.31;98974.08;78273;1298;3053049;-69
2023/10/09 03:44:53;;;;;;;3.70;2.00;;;;;;;4.58;67.81;98979.46;78191;1298;3050431;-67
2023/10/09 03:47:23;;;;;;;4.10;2.20;;;;;;;4.36;69.18;98977.96;79473;1298;3011631;-67
2023/10/09 03:49:53;;;;;;;6.10;2.90;;;;;;;4.33;69.68;98965.83;78270;1308;3050925;-68
2023/10/09 03:52:20;;;;;;;5.70;2.80;;;;;;;4.20;70.53;98975.73;79734;1298;3013111;-70
2023/10/09 03:54:49;;;;;;;8.50;3.00;;;;;;;4.32;70.05;98973.67;78971;1297;3011595;-64
2023/10/09 03:57:19;;;;;;;7.30;3.10;;;;;;;4.31;70.22;98980.27;79761;1296;3013783;-65
2023/10/09 03:59:47;;;;;;;7.20;2.70;;;;;;;4.25;70.60;98985.42;79028;1295;3013646;-71
2023/10/09 04:02:15;;;;;;;8.10;3.60;;;;;;;4.18;70.88;98982.05;79697;1308;3018432;-70
2023/10/09 04:04:47;;;;;;;9.40;4.10;;;;;;;4.13;71.40;98984.86;79614;1297;3013868;-67
2023/10/09 04:07:17;;;;;;;5.70;3.60;;;;;;;4.04;71.93;98994.24;78481;1294;3051157;-72
2023/10/09 04:10:03;;;;;;;7.90;3.60;;;;;;;4.15;71.45;98995.36;79446;1297;3012106;-70
2023/10/09 04:12:33;;;;;;;6.10;3.10;;;;;;;4.23;71.10;99005.24;78533;1296;3050577;-70
2023/10/09 04:15:05;;;;;;;3.90;2.30;;;;;;;4.12;71.59;99011.06;79438;1298;3011362;-71
2023/10/09 04:17:33;;;;;;;4.40;3.00;;;;;;;4.17;71.57;99012.78;78381;1301;3048169;-69
2023/10/09 04:22:50;;;;;;;3.00;1.80;;;;;;;4.15;72.10;99020.30;78394;1298;3053972;-69
2023/10/09 04:25:25;;;;;;;2.40;1.30;;;;;;;4.16;72.08;99022.34;79623;1297;3011564;-72
2023/10/09 04:30:55;;;;;;;4.40;1.30;;;;;;;5.20;68.91;99028.25;78422;1295;3051909;-71
2023/10/09 04:33:40;;;;;;;5.70;1.50;;;;;;;5.39;68.49;99021.50;78246;1294;3056877;-67
2023/10/09 04:41:51;;;;;;;4.40;1.70;;;;;;;4.96;68.96;99045.46;78477;1295;3050046;-73
2023/10/09 04:44:22;;;;;;;4.20;1.80;;;;;;;4.98;68.56;99050.61;78447;1298;3053196;-67
2023/10/09 04:50:01;;;;;;;1.50;1.00;;;;;;;4.87;66.93;99054.70;78490;1295;3070302;-68
2023/10/09 04:55:18;;;;;;;2.50;1.00;;;;;;;4.95;64.18;99062.72;79438;1295;3013075;-68
2023/10/09 04:58:00;;;;;;;4.30;0.80;;;;;;;4.92;63.60;99064.91;78516;1295;3054012;-69
2023/10/09 05:02:57;;;;;;;1.50;0.40;;;;;;;4.98;62.39;99063.27;79866;1297;3013485;-70
2023/10/09 05:08:19;;;;;;;0.80;0.50;;;;;;;5.06;61.74;99069.90;78286;1298;3052150;-68
2023/10/09 05:16:15;;;;;;;1.40;0.50;;;;;;;5.05;61.14;99075.63;78593;1298;3053760;-66
2023/10/09 05:18:59;;;;;;;0.90;0.40;;;;;;;5.10;60.91;99083.23;79347;1296;3011514;-70
2023/10/09 05:37:32;;;;;;;0.60;0.20;;;;;;;5.15;62.50;99112.88;78355;1295;3056656;-68
2023/10/09 06:04:54;;;;;;;6.80;2.00;;;;;;;5.61;64.29;99145.94;78531;1295;3054429;-72
2023/10/09 06:07:40;;;;;;;3.20;2.20;;;;;;;5.49;64.74;99148.55;78624;1297;3048418;-74
2023/10/09 06:10:18;;;;;;;4.10;2.00;;;;;;;5.54;64.91;99149.02;78562;1297;3053479;-72
2023/10/09 06:12:49;;;;;;;4.40;2.60;;;;;;;5.63;65.36;99149.98;78287;1298;3052744;-68
2023/10/09 06:15:30;;;;;;;5.00;2.90;;;;;;;5.63;66.31;99150.36;79667;1298;3011687;-66
2023/10/09 06:18:25;;;;;;;6.40;2.80;;;;;;;5.59;66.92;99151.05;78580;1297;3051512;-68
2023/10/09 06:24:22;;;;;;;8.00;2.70;;;;;;;5.74;66.44;99149.66;78636;1295;3048636;-70
2023/10/09 06:26:24;;;;;;;4.90;2.90;;;;;;;5.72;66.66;99154.45;78486;1295;3054613;-70
2023/10/09 06:29:14;;;;;;;8.70;2.90;;;;;;;5.79;66.18;99154.31;79680;1298;3013251;-68
2023/10/09 06:31:57;;;;;;;5.70;2.10;;;;;;;5.82;65.73;99151.58;78388;1297;3053794;-70
2023/10/09 06:34:44;;;;;;;4.50;2.30;;;;;;;5.86;65.79;99161.66;78305;1295;3068810;-69
2023/10/09 06:48:09;;;;;;;5.40;2.40;;;;;;;5.80;66.81;99177.73;78316;1297;3049723;-70
2023/10/09 06:50:58;;;;;;;4.90;2.80;;;;;;;5.75;67.15;99175.71;78378;1297;3052730;-69
2023/10/09 06:53:58;;;;;;;6.40;2.70;;;;;;;5.72;67.34;99181.55;78374;1298;3050513;-67
2023/10/09 06:56:30;;;;;;;7.90;2.60;;;;;;;5.87;66.90;99187.48;78535;1298;3069103;-70
2023/10/09 06:59:21;;;;;;;8.20;2.70;;;;;;;5.87;66.97;99188.54;78497;1295;3052357;-73
2023/10/09 07:07:09;;;;;;;5.30;2.80;;;;;;;5.92;66.36;99177.37;79585;1296;3013190;-62
2023/10/09 07:10:28;;;;;;;7.40;2.50;;;;;;;5.97;65.71;99182.73;78191;1298;3051675;-64
2023/10/09 07:12:32;;;;;;;5.20;2.20;;;;;;;6.09;65.28;99176.60;78413;1297;3052189;-63
2023/10/09 07:16:23;;;;;;;6.90;2.40;;;;;;;6.12;65.41;99188.29;79731;1295;3014421;-70
2023/10/09 07:17:52;;;;;;;2.60;1.20;;;;;;;6.15;62.53;99198.24;78353;1297;3056517;-63
2023/10/09 07:20:37;;;;;;;4.60;1.40;;;;;;;6.12;59.65;99197.35;79850;1295;3013198;-69
2023/10/09 07:23:14;;;;;;;0.60;0.40;;;;;;;6.13;56.60;99228.92;78371;1297;3054539;-67
2023/10/09 07:25:42;;;;;;;0.60;0.40;;;;;;;6.29;54.89;99202.66;78394;1299;3051607;-68
2023/10/09 07:28:18;;;;;;;1.60;0.50;;;;;;;6.40;54.39;99206.30;79605;1295;3013619;-71
2023/10/09 07:30:46;;;;;;;0.70;0.50;;;;;;;6.38;53.68;99212.98;78505;1295;3069661;-69
2023/10/09 07:38:28;;;;;;;1.40;0.50;;;;;;;6.51;53.46;99219.86;78544;1296;3051870;-71
2023/10/09 07:43:45;;;;;;;2.60;0.70;;;;;;;6.74;51.54;99228.51;79612;1297;3013149;-67
2023/10/09 07:46:32;;;;;;;1.00;0.40;;;;;;;6.83;50.92;99221.45;78447;1297;3053532;-70
2023/10/09 07:49:12;;;;;;;1.50;0.70;;;;;;;6.90;50.60;99237.81;78354;1295;3067814;-69
2023/10/09 07:51:43;;;;;;;2.00;0.70;;;;;;;6.81;49.71;99247.14;78407;1295;3051080;-71
2023/10/09 07:54:14;;;;;;;10.80;0.80;;;;;;;6.82;49.76;99234.57;79556;1297;3011613;-72
2023/10/09 07:56:45;;;;;;;1.90;0.70;;;;;;;7.00;49.65;99232.66;78422;1297;3049760;-70
2023/10/09 07:59:12;;;;;;;1.60;0.80;;;;;;;7.29;49.19;99228.59;79569;1298;3013589;-68
2023/10/09 08:04:39;;;;;;;2.30;0.80;;;;;;;7.56;47.94;99234.00;78456;1295;3052820;-66
2023/10/09 08:07:19;;;;;;;2.00;0.70;;;;;;;7.50;47.60;99221.91;78435;1296;3051518;-70
2023/10/09 08:09:48;;;;;;;3.60;0.90;;;;;;;7.57;48.26;99229.43;78527;1295;3071820;-73
2023/10/09 08:12:57;;;;;;;2.00;0.90;;;;;;;7.67;48.95;99224.00;79704;1295;3011541;-69
2023/10/09 08:17:53;;;;;;;2.10;0.80;;;;;;;7.37;49.89;99228.71;78468;1297;3054817;-74
2023/10/09 08:20:26;;;;;;;1.20;0.80;;;;;;;7.36;48.02;99238.86;77465;1295;3168064;-68
2023/10/09 08:22:57;;;;;;;1.80;0.70;;;;;;;7.44;47.53;99238.96;78429;1298;3052301;-70
2023/10/09 08:25:35;;;;;;;2.50;0.90;;;;;;;7.46;47.76;99243.21;79754;1297;3011652;-68
2023/10/09 08:31:02;;;;;;;2.70;0.60;;;;;;;7.55;47.81;99240.65;78404;1295;3051344;-69
2023/10/09 08:33:40;;;;;;;2.00;0.90;;;;;;;7.49;48.10;99260.13;78452;1295;3056721;-67
2023/10/09 08:36:11;;;;;;;3.30;1.40;;;;;;;7.42;48.20;99264.34;78474;1295;3047532;-65
2023/10/09 08:38:41;;;;;;;2.40;1.10;;;;;;;7.45;48.27;99264.05;79629;1294;3013461;-71
2023/10/09 08:41:22;;;;;;;2.60;0.90;;;;;;;7.47;48.36;99267.38;78439;1295;3049428;-70
2023/10/09 08:43:52;;;;;;;2.50;0.80;;;;;;;7.35;48.00;99273.92;78447;1294;3054325;-69
2023/10/09 08:46:28;;;;;;;1.10;0.50;;;;;;;7.48;47.68;99274.83;79610;1298;3013280;-69
2023/10/09 08:48:58;;;;;;;2.10;0.90;;;;;;;7.45;47.43;99278.14;78447;1296;3050639;-72
2023/10/09 08:51:25;;;;;;;2.10;1.00;;;;;;;7.69;47.19;99267.67;79811;1297;3011334;-69
2023/10/09 08:53:57;;;;;;;1.70;0.90;;;;;;;8.04;46.27;99269.16;79160;1295;3011853;-71
2023/10/09 08:56:24;;;;;;;1.40;0.80;;;;;;;7.93;45.87;99277.59;79606;1297;3011601;-65
2023/10/09 08:58:59;;;;;;;2.10;1.00;;;;;;;7.88;46.18;99282.56;78388;1297;3050186;-71
2023/10/09 09:01:25;;;;;;;1.80;0.80;;;;;;;7.82;46.45;99277.60;79763;1294;3011665;-69
2023/10/09 09:03:55;;;;;;;3.00;1.10;;;;;;;7.90;46.91;99280.01;78753;1297;3026162;-70
2023/10/09 09:06:23;;;;;;;2.70;1.20;;;;;;;7.86;47.05;99283.34;79833;1294;3013364;-69
2023/10/09 09:08:59;;;;;;;2.00;1.00;;;;;;;7.77;47.38;99283.98;79244;1298;3012069;-72
2023/10/09 09:11:35;;;;;;;4.70;1.00;;;;;;;7.86;47.46;99287.92;79365;1294;3011807;-68
2023/10/09 09:14:12;;;;;;;1.80;0.70;;;;;;;7.84;47.63;99291.80;78655;1295;3056526;-71
2023/10/09 09:16:44;;;;;;;3.70;0.70;;;;;;;7.77;48.13;99286.94;78509;1298;3049321;-69
2023/10/09 09:21:44;;;;;;;2.70;0.90;;;;;;;7.79;48.24;99293.83;78408;1294;3026559;-68
2023/10/09 09:26:46;;;;;;;1.70;0.80;;;;;;;7.70;47.79;99292.19;78393;1297;3052686;-70
2023/10/09 09:29:14;;;;;;;2.30;0.60;;;;;;;7.73;47.62;99293.61;79751;1294;3012861;-69
2023/10/09 09:32:06;;;;;;;1.40;0.70;;;;;;;7.79;47.70;99293.50;79650;1295;3011435;-68
2023/10/09 09:34:48;;;;;;;2.10;0.70;;;;;;;7.95;47.96;99293.15;78441;1294;3049012;-73
2023/10/09 09:37:20;;;;;;;2.40;0.70;;;;;;;8.06;47.83;99289.10;78343;1297;3053409;-73
2023/10/09 09:39:49;;;;;;;2.50;0.80;;;;;;;8.02;48.00;99294.04;79673;1295;3011941;-75
2023/10/09 09:43:44;;;;;;;3.50;1.10;;;;;;;8.10;48.17;99300.91;80620;1295;3011588;-65
2023/10/09 09:46:11;;;;;;;1.90;0.70;;;;;;;8.04;48.64;99288.87;79474;1295;3011636;-69
2023/10/09 09:48:39;;;;;;;1.50;0.90;;;;;;;7.99;48.86;99303.05;78524;1298;3049420;-69
2023/10/09 09:51:08;;;;;;;4.60;0.80;;;;;;;7.87;49.11;99306.86;79763;1297;3018732;-69
2023/10/09 09:53:35;;;;;;;3.80;1.20;;;;;;;7.88;48.89;99305.59;79660;1298;3011590;-69
2023/10/09 09:56:03;;;;;;;1.80;0.90;;;;;;;7.66;48.88;99321.16;76125;1300;3247235;-71
2023/10/09 09:58:42;;;;;;;1.40;0.80;;;;;;;7.80;48.99;99305.14;79777;1298;3013086;-71
2023/10/09 10:01:22;;;;;;;2.10;0.70;;;;;;;7.64;47.48;99297.41;78876;1292;3052617;-71
2023/10/09 10:04:13;;;;;;;3.30;0.80;;;;;;;7.77;46.76;99302.98;78538;1297;3048644;-68
2023/10/09 10:06:44;;;;;;;2.10;0.80;;;;;;;8.09;45.66;99309.38;78670;1298;3053599;-70
2023/10/09 10:09:38;;;;;;;3.00;1.00;;;;;;;8.20;45.15;99307.36;79816;1298;3013376;-76
2023/10/09 10:12:09;;;;;;;2.60;0.70;;;;;;;8.13;45.26;99316.33;78751;1294;3069159;-69
2023/10/09 10:14:59;;;;;;;2.20;0.90;;;;;;;8.06;45.40;99314.60;79845;1295;3011777;-65
2023/10/09 10:17:29;;;;;;;1.70;0.70;;;;;;;7.94;45.62;99315.70;78629;1292;3057401;-73
2023/10/09 10:22:47;;;;;;;1.60;0.90;;;;;;;7.94;45.29;99309.63;78600;1295;3054382;-69
2023/10/09 10:25:32;;;;;;;0.80;0.50;;;;;;;8.11;45.31;99298.96;79769;1292;3011757;-73
2023/10/09 10:28:28;;;;;;;3.60;1.00;;;;;;;8.08;45.48;99321.29;78574;1296;3053302;-72
2023/10/09 10:30:59;;;;;;;2.00;0.90;;;;;;;7.92;46.28;99313.23;78528;1296;3054241;-72
2023/10/09 10:33:27;;;;;;;2.30;0.60;;;;;;;7.83;47.05;99312.80;79700;1297;3013241;-66
2023/10/09 10:35:55;;;;;;;2.60;0.70;;;;;;;7.67;47.28;99320.23;78586;1293;3048577;-67
2023/10/09 10:38:42;;;;;;;2.90;0.90;;;;;;;7.57;47.79;99328.93;80232;1292;3012085;-69
2023/10/09 10:41:18;;;;;;;1.60;0.80;;;;;;;7.70;47.84;99323.43;78933;1297;3053474;-73
2023/10/09 10:49:36;;;;;;;1.20;0.60;;;;;;;7.75;48.64;99325.73;78502;1297;3053545;-67
2023/10/09 10:51:47;;;;;;;2.50;0.80;;;;;;;7.79;48.39;99337.95;78464;1297;3052815;-69
2023/10/09 10:54:45;;;;;;;1.30;0.60;;;;;;;7.67;48.47;99340.30;79861;1298;3011657;-66
2023/10/09 10:57:19;;;;;;;1.30;0.70;;;;;;;7.71;48.85;99333.29;78543;1292;3050384;-67
2023/10/09 10:59:46;;;;;;;7.20;1.30;;;;;;;7.76;48.73;99336.88;79965;1297;3011937;-68
2023/10/09 11:02:27;;;;;;;1.90;0.80;;;;;;;7.82;48.57;99340.73;78710;1294;3049130;-73
2023/10/09 11:04:56;;;;;;;2.40;0.80;;;;;;;7.69;49.05;99339.48;78466;1298;3053531;-73
2023/10/09 11:12:39;;;;;;;0.70;0.70;;;;;;;7.66;48.74;99355.35;78582;1296;3067702;-69
2023/10/09 11:29:23;;;;;;;5.10;0.90;;;;;;;7.72;47.52;99339.17;78591;1298;3052537;-70
2023/10/09 11:32:24;;;;;;;0.50;0.40;;;;;;;7.79;48.05;99336.55;78459;1298;3053425;-68
2023/10/09 11:35:11;;;;;;;1.40;0.90;;;;;;;7.90;47.69;99337.05;78565;1298;3068236;-68
2023/10/09 11:37:42;;;;;;;4.00;0.80;;;;;;;7.97;47.32;99347.48;78281;1297;3050511;-66
2023/10/09 11:40:44;;;;;;;2.00;0.90;;;;;;;7.97;47.30;99341.40;79630;1295;3012822;-63
2023/10/09 11:43:13;;;;;;;0.90;0.80;;;;;;;8.00;47.30;99346.79;78532;1292;3049079;-69
2023/10/09 11:45:53;;;;;;;1.80;0.80;;;;;;;7.82;47.40;99354.71;79603;1295;3011548;-66
2023/10/09 11:48:33;;;;;;;0.90;0.50;;;;;;;7.80;47.80;99355.69;78618;1298;3052151;-69
2023/10/09 11:53:45;;;;;;;1.80;0.80;;;;;;;7.93;47.60;99361.66;79983;1295;3011509;-71
2023/10/09 11:56:19;;;;;;;1.00;0.80;;;;;;;7.91;47.41;99358.63;78781;1294;3051919;-69
2023/10/09 11:58:49;;;;;;;2.90;1.20;;;;;;;7.90;47.51;99364.06;79595;1295;3013177;-66
2023/10/09 12:01:20;;;;;;;2.00;0.80;;;;;;;8.02;47.65;99355.23;78795;1294;3049845;-65
2023/10/09 12:03:49;;;;;;;1.70;0.90;;;;;;;8.09;47.22;99363.61;79764;1296;3013057;-68
2023/10/09 12:06:25;;;;;;;2.60;0.70;;;;;;;7.97;47.19;99351.67;78619;1296;3050072;-71
2023/10/09 12:08:58;;;;;;;1.80;0.90;;;;;;;8.08;47.42;99345.03;78586;1298;3052991;-73
2023/10/09 12:11:31;;;;;;;1.60;0.80;;;;;;;8.14;47.44;99349.21;79782;1298;3012092;-70
2023/10/09 12:14:00;;;;;;;2.50;1.10;;;;;;;8.24;47.24;99353.41;78436;1297;3068401;-71
2023/10/09 12:16:32;;;;;;;10.50;0.70;;;;;;;8.22;47.40;99348.98;79727;1293;3012974;-66
2023/10/09 12:19:02;;;;;;;2.80;0.90;;;;;;;8.24;47.80;99351.30;78571;1295;3058405;-66
2023/10/09 12:21:29;;;;;;;3.10;1.10;;;;;;;8.20;48.72;99360.77;79817;1294;3013110;-72
2023/10/09 12:23:59;;;;;;;1.80;1.10;;;;;;;8.24;49.27;99355.86;79784;1295;3013671;-70
2023/10/09 12:26:27;;;;;;;2.80;1.20;;;;;;;8.14;49.95;99362.48;78651;1297;3052100;-71
2023/10/09 12:28:54;;;;;;;4.60;1.70;;;;;;;8.10;50.57;99366.52;79894;1295;3013076;-67
2023/10/09 12:31:21;;;;;;;5.00;2.00;;;;;;;8.05;51.02;99364.36;80021;1298;3011687;-73
2023/10/09 12:33:50;;;;;;;6.00;2.00;;;;;;;8.04;51.64;99370.66;78528;1295;3025515;-70
2023/10/09 12:36:19;;;;;;;5.50;2.20;;;;;;;8.01;52.23;99368.73;79931;1292;3014868;-71
2023/10/09 12:38:53;;;;;;;4.60;1.90;;;;;;;8.00;52.74;99366.16;78588;1297;3053620;-70
2023/10/09 12:41:26;;;;;;;9.70;2.10;;;;;;;8.16;52.75;99363.42;79770;1296;3011495;-67
2023/10/09 12:43:54;;;;;;;3.30;1.80;;;;;;;8.24;52.87;99365.09;78556;1297;3051751;-68
2023/10/09 12:46:25;;;;;;;2.10;1.40;;;;;;;8.27;52.98;99364.10;80049;1294;3021345;-68
2023/10/09 12:48:54;;;;;;;3.60;1.40;;;;;;;8.35;52.92;99366.59;78534;1297;3050841;-70
2023/10/09 12:51:29;;;;;;;5.20;2.10;;;;;;;8.37;53.04;99363.36;79998;1292;3013127;-69
2023/10/09 12:53:57;;;;;;;2.60;1.70;;;;;;;8.16;53.58;99368.83;78560;1294;3053279;-66
2023/10/09 12:56:32;;;;;;;8.00;1.20;;;;;;;8.12;53.14;99375.50;79875;1298;3012987;-70
2023/10/09 12:59:01;;;;;;;2.60;1.20;;;;;;;7.97;52.55;99368.95;78459;1298;3053097;-67
2023/10/09 13:01:32;;;;;;;5.30;1.30;;;;;;;7.96;52.74;99364.65;79944;1293;3011631;-69
2023/10/09 13:03:59;;;;;;;2.70;1.40;;;;;;;7.98;52.85;99359.27;78455;1295;3056102;-68
2023/10/09 13:06:27;;;;;;;4.20;1.30;;;;;;;8.07;52.52;99360.41;79684;1294;3019704;-70
2023/10/09 13:08:59;;;;;;;3.30;1.50;;;;;;;8.12;52.63;99359.95;79766;1295;3013608;-69
2023/10/09 13:11:28;;;;;;;1.60;1.10;;;;;;;8.14;51.94;99361.07;78613;1297;3051495;-68
2023/10/09 13:13:55;;;;;;;1.80;1.10;;;;;;;8.01;51.57;99359.12;79549;1298;3014238;-67
2023/10/09 13:16:24;;;;;;;3.50;1.10;;;;;;;8.12;51.47;99350.75;79721;1298;3013112;-69
2023/10/09 13:18:53;;;;;;;3.60;1.30;;;;;;;8.06;51.31;99355.05;78380;1296;3056036;-67
2023/10/09 13:21:25;;;;;;;3.00;1.30;;;;;;;8.04;51.76;99347.14;79809;1293;3013258;-67
2023/10/09 13:23:57;;;;;;;3.30;1.40;;;;;;;8.01;51.65;99346.90;78766;1298;3049827;-70
2023/10/09 13:26:25;;;;;;;2.90;1.20;;;;;;;8.09;51.86;99346.90;79825;1298;3011637;-68
2023/10/09 13:28:53;;;;;;;2.40;1.30;;;;;;;8.19;51.76;99341.45;78566;1298;3052906;-70
2023/10/09 13:31:20;;;;;;;6.40;1.50;;;;;;;8.08;52.12;99350.05;79646;1296;3013461;-68
2023/10/09 13:33:48;;;;;;;2.20;1.10;;;;;;;8.16;52.40;99345.11;79731;1298;3011666;-68
2023/10/09 13:36:31;;;;;;;3.60;1.10;;;;;;;8.14;52.63;99343.64;78932;1298;3048308;-71
2023/10/09 13:39:26;;;;;;;2.80;1.50;;;;;;;8.02;52.88;99350.01;78592;1295;3051740;-66
2023/10/09 13:41:58;;;;;;;1.90;1.10;;;;;;;8.13;52.92;99352.79;78532;1292;3050263;-68
2023/10/09 13:44:28;;;;;;;8.00;2.00;;;;;;;8.14;53.36;99352.35;79592;1295;3013249;-69
2023/10/09 13:46:57;;;;;;;4.70;2.00;;;;;;;8.14;53.71;99354.44;78455;1297;3051909;-72
2023/10/09 13:49:29;;;;;;;2.30;1.70;;;;;;;8.05;54.17;99349.52;79871;1297;3016248;-71
2023/10/09 13:52:02;;;;;;;6.40;2.80;;;;;;;8.02;54.35;99345.64;78724;1296;3056830;-68
2023/10/09 13:57:03;;;;;;;3.90;1.70;;;;;;;7.90;54.62;99346.48;78705;1295;3054235;-72
2023/10/09 13:59:30;;;;;;;7.20;1.80;;;;;;;7.82;54.88;99346.70;79892;1292;3013020;-68
2023/10/09 14:01:59;;;;;;;3.80;1.70;;;;;;;7.92;54.53;99349.15;78494;1296;3025519;-69
2023/10/09 14:04:28;;;;;;;4.60;2.00;;;;;;;7.96;54.54;99347.38;79687;1297;3013324;-66
2023/10/09 14:06:57;;;;;;;6.00;2.60;;;;;;;7.92;54.83;99350.73;79225;1294;3012949;-69
2023/10/09 14:09:45;;;;;;;4.70;1.70;;;;;;;7.91;54.59;99346.05;79651;1293;3013548;-70
2023/10/09 14:12:15;;;;;;;4.80;2.00;;;;;;;7.91;54.79;99346.58;78539;1298;3050351;-66
2023/10/09 14:14:49;;;;;;;6.30;1.80;;;;;;;7.92;55.07;99344.98;79828;1295;3013203;-67
2023/10/09 14:17:25;;;;;;;4.50;1.90;;;;;;;8.03;54.74;99354.84;78541;1297;3050355;-67
2023/10/09 14:19:53;;;;;;;5.90;1.70;;;;;;;8.14;54.36;99357.10;78336;1297;3053432;-67
2023/10/09 14:22:24;;;;;;;3.40;1.80;;;;;;;7.98;54.75;99361.38;79973;1295;3013392;-67
2023/10/09 14:24:55;;;;;;;4.40;1.90;;;;;;;8.11;54.40;99362.98;78525;1295;3050632;-68
2023/10/09 14:27:25;;;;;;;5.90;2.20;;;;;;;8.28;54.18;99371.55;79683;1293;3011190;-68
2023/10/09 14:29:59;;;;;;;5.30;2.30;;;;;;;8.27;54.09;99373.15;78509;1294;3048280;-66
2023/10/09 14:32:28;;;;;;;;;;;;;;;8.28;54.37;99374.30;79707;1294;3011600;-68
2023/10/09 14:35:00;;;;;;;5.00;2.50;;;;;;;8.16;54.91;99373.71;78739;1294;3051039;-65